Hauptseite
METAR-TAF:

METAR-TAF

Flughäfen :

Flughafen Bagdad

Bagdad, Irak

Breite: 33-15-45N, Länge: 44-14-04E, Höhe: 35 m

Beobachtung

Neuester Wetterbericht von vor 52 Minuten, um 05:00 UTC
Wind 11 kt aus West/Nordwest
Temperatur 32°C
Luftfeuchtigkeit 34%
Luftdruck 1002 hPa
Sichtweite 10 km oder mehr
keine Wolken unter 1500 m und keine Kumulonimbus oder Gewitterwolken

METAR: ORBI 170500Z 29011KT CAVOK 32/14 Q1002 NOSIG

Zeit: 08:52 (05:52 UTC)

Prognose

Neuester Wetterbericht von vor 1 Stunde und 52 Minuten, um 04:00 UTC
Gültige Prognose vom 17 um 06 UTC bis 18 um 06 UTC
Sichtweite 10 km oder mehr
keine Wolken unter 1500 m und keine Kumulonimbus oder Gewitterwolken

TAF: ORBI 170400Z 1706/1806 3001KT CAVOK

Wetterbeobachtungen und Prognosen von mehr als 4000 Flughäfen (METAR und TAF Bericht).

Die verfügbaren Stationen werden durch gelbe und rote Markierungen auf der Karte dargestellt.

Führen Sie die Maus auf sie, um den Namen der Station zu sehen.

Darauf klicken, um die Beobachtung von Wetterbeobachtungen und Prognosen zu sehen.

Um die Karte zu ändern : klicken Sie auf den grünen Tasten mit einem schwarzen Kreuz Zum Vergrößern, auf den grünen Button mit einem Gedankenstrich zu verkleinern, oder auf die grünen Pfeile für benachbarte Karten.


METAR-TAF: